Pagina principală
METAR-TAF:

METAR-TAF

Aeroporturi :

Apia, Upolu, Samoa

Latitudine: 13-49S, longitudine: 172-00W, elevație: 5 m

Observații meteo curente

Raportul a fost făcut în urmă cu 31 de minute, la 02:00 UTC
Vânt 9 kt de la Nord/Nord-est
Temperatură 28°C
Umiditate 89%
Presiune 1009 hPa
Vizibilitate de 10 km sau mai mult
Nori puțini la o înălțime de 2200 picior
Nori împrăștiați la o înălțime de 4500 picior
Total acoperit la o înălțime de 15000 picior

METAR: NSFA 020200Z 03009KT 9999 FEW022 SCT045 OVC150 28/26 Q1009

Ora: 16:31 (02:31 UTC)


TAF: lipsă

Observații și prognoze meteo pentru peste 4.000 de aeroporturi (rapoarte METAR și TAF).

Stațiile disponibile sunt reprezentate pe hartă prin puncte galbene și roșii.

Țineți indicatorul mouse-ului pe punctul dorit pentru a vedea denumirea stației.

Apoi, faceți clic pentru a vedea observațiile și prognozele meteorologice.

Pentru a schimba harta: Pentru mărire, faceți clic pe butoanele verzi cu cruce neagră; pentru micșorare, pe butonul verde cu o liniuță; pentru hărți învecinate, pe săgețile verzi.


METAR-TAF: